Time;durP1;ratioP1;P1;durP2;ratioP2;P2;SDS_P1;SDS_P2;PMS_P1;PMS_P2;Temp;Humidity;BMP_temperature;BMP_pressure;BME280_temperature;BME280_humidity;BME280_pressure;Samples;Min_cycle;Max_cycle;Signal;HPM_P1;HPM_P2
2023/03/07 00:00:37;;;;;;;31.60;15.90;;;;;;;-1.16;100.00;98085.11;104565;1295;24247;-34
2023/03/07 00:03:03;;;;;;;30.70;14.80;;;;;;;-51.86;59.60;58849.12;103047;1295;1002748;-35
2023/03/07 00:05:28;;;;;;;37.60;18.00;;;;;;;-128.00;-1.00;-1.00;100999;1305;1004988;-35
2023/03/07 00:07:54;;;;;;;38.80;16.10;;;;;;;-128.00;-1.00;-1.00;100995;1305;1004277;-31
2023/03/07 00:10:20;;;;;;;29.90;12.50;;;;;;;-128.00;-1.00;-1.00;100934;1305;1005243;-31
2023/03/07 00:12:46;;;;;;;40.70;15.20;;;;;;;-128.00;-1.00;-1.00;101011;1305;1004313;-31
2023/03/07 00:15:12;;;;;;;35.40;18.10;;;;;;;-128.00;-1.00;-1.00;100855;1305;1004381;-35
2023/03/07 00:17:38;;;;;;;39.70;16.90;;;;;;;-128.00;-1.00;-1.00;100950;1305;1003931;-29
2023/03/07 00:20:06;;;;;;;43.70;19.40;;;;;;;-128.00;-1.00;-1.00;101000;1305;1003849;-33
2023/03/07 00:22:33;;;;;;;35.60;17.30;;;;;;;-128.00;-1.00;-1.00;101076;1305;1004529;-29
2023/03/07 00:24:58;;;;;;;46.50;19.00;;;;;;;-128.00;-1.00;-1.00;100920;1305;1004247;-34
2023/03/07 00:27:24;;;;;;;49.00;16.20;;;;;;;-128.00;-1.00;-1.00;101018;1305;1004923;-29
2023/03/07 00:29:50;;;;;;;51.30;20.90;;;;;;;-128.00;-1.00;-1.00;101101;1305;1004651;-31
2023/03/07 00:32:16;;;;;;;37.00;18.50;;;;;;;-128.00;-1.00;-1.00;100963;1305;1004610;-33
2023/03/07 00:34:42;;;;;;;42.00;20.80;;;;;;;-128.00;-1.00;-1.00;100982;1305;1003790;-31
2023/03/07 00:37:07;;;;;;;41.90;18.40;;;;;;;-128.00;-1.00;-1.00;101050;1305;1004944;-34
2023/03/07 00:39:33;;;;;;;38.30;16.60;;;;;;;-128.00;-1.00;-1.00;100885;1305;1003972;-34
2023/03/07 00:41:59;;;;;;;32.20;16.30;;;;;;;-128.00;-1.00;-1.00;100988;1305;1003922;-38
2023/03/07 00:44:28;;;;;;;43.50;18.40;;;;;;;-128.00;-1.00;-1.00;100982;1305;1004706;-30
2023/03/07 00:46:55;;;;;;;34.40;15.70;;;;;;;-128.00;-1.00;-1.00;100945;1305;1004677;-30
2023/03/07 00:49:21;;;;;;;36.80;17.40;;;;;;;-128.00;-1.00;-1.00;100948;1305;1004411;-30
2023/03/07 00:51:47;;;;;;;29.20;14.50;;;;;;;-128.00;-1.00;-1.00;101035;1305;1003907;-34
2023/03/07 00:54:13;;;;;;;29.80;15.70;;;;;;;-128.00;-1.00;-1.00;100878;1305;1004590;-29
2023/03/07 00:56:39;;;;;;;51.60;18.10;;;;;;;-128.00;-1.00;-1.00;100954;1305;1004993;-30
2023/03/07 00:59:05;;;;;;;39.00;17.80;;;;;;;-128.00;-1.00;-1.00;100897;1305;1004476;-33
2023/03/07 01:01:31;;;;;;;23.10;11.90;;;;;;;-128.00;-1.00;-1.00;100991;1305;1004824;-30
2023/03/07 01:03:56;;;;;;;36.70;18.70;;;;;;;-128.00;-1.00;-1.00;101040;1305;1004396;-35
2023/03/07 01:06:26;;;;;;;48.00;20.80;;;;;;;-128.00;-1.00;-1.00;101035;1305;1004828;-35
2023/03/07 01:08:53;;;;;;;33.50;15.00;;;;;;;-128.00;-1.00;-1.00;100895;1305;1004608;-35
2023/03/07 01:11:18;;;;;;;40.90;16.10;;;;;;;-128.00;-1.00;-1.00;100873;1305;1004860;-31
2023/03/07 01:13:44;;;;;;;54.90;23.60;;;;;;;-128.00;-1.00;-1.00;100940;1305;1004849;-35
2023/03/07 01:16:15;;;;;;;51.20;20.00;;;;;;;-128.00;-1.00;-1.00;101005;1305;1004911;-31
2023/03/07 01:18:41;;;;;;;42.10;18.30;;;;;;;-128.00;-1.00;-1.00;100889;1305;1004454;-31
2023/03/07 01:21:13;;;;;;;37.50;18.70;;;;;;;-128.00;-1.00;-1.00;100992;1305;1005762;-31
2023/03/07 01:23:39;;;;;;;33.90;16.70;;;;;;;-128.00;-1.00;-1.00;100877;1299;1004983;-30
2023/03/07 01:26:05;;;;;;;42.70;20.60;;;;;;;-128.00;-1.00;-1.00;100928;1305;1004154;-31
2023/03/07 01:28:31;;;;;;;38.50;18.40;;;;;;;-128.00;-1.00;-1.00;100970;1305;1004444;-31
2023/03/07 01:30:57;;;;;;;36.30;14.90;;;;;;;-128.00;-1.00;-1.00;100991;1305;1004643;-31
2023/03/07 01:33:23;;;;;;;42.00;19.00;;;;;;;-128.00;-1.00;-1.00;100935;1305;1004806;-31
2023/03/07 01:35:49;;;;;;;39.50;19.10;;;;;;;-128.00;-1.00;-1.00;100911;1305;1004386;-36
2023/03/07 01:38:15;;;;;;;37.40;19.00;;;;;;;-128.00;-1.00;-1.00;101007;1305;1003846;-31
2023/03/07 01:40:40;;;;;;;30.20;16.60;;;;;;;-128.00;-1.00;-1.00;101042;1305;1004354;-35
2023/03/07 01:43:20;;;;;;;38.50;17.00;;;;;;;-128.00;-1.00;-1.00;101037;1291;1004912;-36
2023/03/07 01:46:06;;;;;;;40.50;17.00;;;;;;;-128.00;-1.00;-1.00;100869;1305;1005717;-31
2023/03/07 01:48:31;;;;;;;38.60;18.60;;;;;;;-128.00;-1.00;-1.00;101007;1305;1004739;-36
2023/03/07 01:50:57;;;;;;;32.00;16.30;;;;;;;-128.00;-1.00;-1.00;100863;1305;1004398;-35
2023/03/07 01:53:23;;;;;;;39.80;17.90;;;;;;;-128.00;-1.00;-1.00;100942;1305;1004268;-31
2023/03/07 01:55:49;;;;;;;54.20;21.90;;;;;;;-128.00;-1.00;-1.00;100997;1305;1004355;-36
2023/03/07 01:58:15;;;;;;;29.70;15.70;;;;;;;-128.00;-1.00;-1.00;101011;1305;1004491;-36
2023/03/07 02:00:41;;;;;;;37.50;18.20;;;;;;;-128.00;-1.00;-1.00;101026;1305;1004499;-30
2023/03/07 02:03:18;;;;;;;46.90;19.10;;;;;;;-128.00;-1.00;-1.00;101079;1305;1003759;-35
2023/03/07 02:05:48;;;;;;;35.80;20.00;;;;;;;-128.00;-1.00;-1.00;100899;1305;1004787;-31
2023/03/07 02:08:14;;;;;;;39.30;18.10;;;;;;;-128.00;-1.00;-1.00;101009;1305;1004385;-30
2023/03/07 02:10:40;;;;;;;44.10;20.00;;;;;;;-128.00;-1.00;-1.00;101004;1305;1003779;-30
2023/03/07 02:13:06;;;;;;;27.50;14.20;;;;;;;-128.00;-1.00;-1.00;100998;1305;1004713;-31
2023/03/07 02:15:33;;;;;;;27.90;13.80;;;;;;;-128.00;-1.00;-1.00;100983;1305;1005198;-37
2023/03/07 02:17:58;;;;;;;34.70;17.70;;;;;;;-128.00;-1.00;-1.00;100933;1305;1005391;-32
2023/03/07 02:20:48;;;;;;;36.00;17.00;;;;;;;-128.00;-1.00;-1.00;101001;1305;1005126;-37
2023/03/07 02:23:30;;;;;;;35.60;16.40;;;;;;;-128.00;-1.00;-1.00;100942;1305;1004699;-37
2023/03/07 02:26:20;;;;;;;50.80;19.50;;;;;;;-128.00;-1.00;-1.00;101018;1305;1005004;-37
2023/03/07 02:28:46;;;;;;;31.90;15.80;;;;;;;-128.00;-1.00;-1.00;100986;1305;1003929;-36
2023/03/07 02:31:11;;;;;;;33.80;14.60;;;;;;;-128.00;-1.00;-1.00;100955;1305;1005175;-36
2023/03/07 02:33:37;;;;;;;42.60;20.50;;;;;;;-128.00;-1.00;-1.00;100914;1305;1004316;-36
2023/03/07 02:36:06;;;;;;;34.60;17.50;;;;;;;-128.00;-1.00;-1.00;100925;1305;1004334;-31
2023/03/07 02:38:32;;;;;;;43.50;18.70;;;;;;;-128.00;-1.00;-1.00;100950;1305;1003873;-32
2023/03/07 02:40:58;;;;;;;21.30;13.40;;;;;;;-128.00;-1.00;-1.00;100742;1305;1004391;-37
2023/03/07 02:43:24;;;;;;;29.30;12.00;;;;;;;-128.00;-1.00;-1.00;100968;1305;1005301;-36
2023/03/07 02:45:50;;;;;;;22.80;11.70;;;;;;;-128.00;-1.00;-1.00;101023;1305;1004896;-37
2023/03/07 02:48:15;;;;;;;39.20;19.70;;;;;;;-128.00;-1.00;-1.00;101033;1305;1004220;-37
2023/03/07 02:50:41;;;;;;;42.20;18.90;;;;;;;-128.00;-1.00;-1.00;101300;1305;1002851;-36
2023/03/07 02:53:07;;;;;;;48.60;21.50;;;;;;;-128.00;-1.00;-1.00;101103;1305;1003481;-33
2023/03/07 02:55:33;;;;;;;49.00;20.60;;;;;;;-128.00;-1.00;-1.00;101131;1305;1003215;-31
2023/03/07 02:57:59;;;;;;;50.00;21.00;;;;;;;-128.00;-1.00;-1.00;101146;1305;1003184;-31
2023/03/07 03:00:25;;;;;;;65.20;24.70;;;;;;;-128.00;-1.00;-1.00;101185;1305;1003376;-34
2023/03/07 03:02:50;;;;;;;47.40;20.10;;;;;;;-128.00;-1.00;-1.00;101206;1305;1003185;-36
2023/03/07 03:05:16;;;;;;;45.20;19.10;;;;;;;-128.00;-1.00;-1.00;101125;1305;1002689;-34
2023/03/07 03:07:42;;;;;;;46.40;21.30;;;;;;;-128.00;-1.00;-1.00;101183;1305;1003317;-35
2023/03/07 03:10:08;;;;;;;57.70;23.50;;;;;;;-128.00;-1.00;-1.00;101240;1305;1003301;-32
2023/03/07 03:12:34;;;;;;;54.60;22.30;;;;;;;-128.00;-1.00;-1.00;101028;1305;1003814;-31
2023/03/07 03:15:00;;;;;;;52.20;23.10;;;;;;;-128.00;-1.00;-1.00;101136;1305;1003315;-35
2023/03/07 03:17:26;;;;;;;43.00;19.60;;;;;;;-128.00;-1.00;-1.00;101101;1305;1002642;-36
2023/03/07 03:19:51;;;;;;;47.40;20.10;;;;;;;-128.00;-1.00;-1.00;101193;1305;1003412;-32
2023/03/07 03:22:17;;;;;;;59.30;23.20;;;;;;;-128.00;-1.00;-1.00;101233;1305;1004540;-32
2023/03/07 03:24:43;;;;;;;56.30;23.00;;;;;;;-128.00;-1.00;-1.00;101161;1299;1003136;-36
2023/03/07 03:27:09;;;;;;;59.80;26.60;;;;;;;-128.00;-1.00;-1.00;101114;1305;1004678;-36
2023/03/07 03:29:34;;;;;;;46.80;20.70;;;;;;;-128.00;-1.00;-1.00;101176;1305;1003214;-32
2023/03/07 03:32:01;;;;;;;43.70;20.20;;;;;;;-128.00;-1.00;-1.00;101107;1305;1003889;-34
2023/03/07 03:34:28;;;;;;;60.50;22.60;;;;;;;-128.00;-1.00;-1.00;101177;1301;1003989;-33
2023/03/07 03:36:54;;;;;;;45.40;20.50;;;;;;;-128.00;-1.00;-1.00;101161;1305;1003402;-33
2023/03/07 03:39:20;;;;;;;35.00;16.60;;;;;;;-128.00;-1.00;-1.00;101179;1305;1003270;-35
2023/03/07 03:41:45;;;;;;;43.00;19.20;;;;;;;-128.00;-1.00;-1.00;101092;1305;1003615;-36
2023/03/07 03:44:11;;;;;;;43.80;18.20;;;;;;;-128.00;-1.00;-1.00;101161;1305;1003900;-32
2023/03/07 03:46:37;;;;;;;67.50;24.50;;;;;;;-128.00;-1.00;-1.00;101245;1305;1004016;-31
2023/03/07 03:49:03;;;;;;;63.10;23.20;;;;;;;-128.00;-1.00;-1.00;100910;1305;1002965;-34
2023/03/07 03:51:29;;;;;;;49.50;23.60;;;;;;;-128.00;-1.00;-1.00;101140;1305;1002493;-34
2023/03/07 03:53:56;;;;;;;61.20;23.40;;;;;;;-128.00;-1.00;-1.00;101118;1305;1005041;-31
2023/03/07 03:56:22;;;;;;;65.20;26.90;;;;;;;-128.00;-1.00;-1.00;101165;1305;1004156;-33
2023/03/07 03:58:50;;;;;;;75.90;26.80;;;;;;;-128.00;-1.00;-1.00;101224;1305;1003252;-35
2023/03/07 04:01:16;;;;;;;40.50;16.60;;;;;;;-128.00;-1.00;-1.00;101240;1291;1003557;-31
2023/03/07 04:03:44;;;;;;;44.10;21.50;;;;;;;-128.00;-1.00;-1.00;101187;1298;1002870;-32
2023/03/07 04:06:14;;;;;;;64.00;27.70;;;;;;;-128.00;-1.00;-1.00;101225;1305;1004753;-32
2023/03/07 04:08:40;;;;;;;67.50;21.40;;;;;;;-128.00;-1.00;-1.00;101108;1305;1003016;-38
2023/03/07 04:11:06;;;;;;;69.50;26.20;;;;;;;-128.00;-1.00;-1.00;101123;1305;1003084;-35
2023/03/07 04:13:33;;;;;;;60.70;24.10;;;;;;;-128.00;-1.00;-1.00;101125;1305;1004105;-32
2023/03/07 04:15:59;;;;;;;68.40;26.50;;;;;;;-128.00;-1.00;-1.00;101127;1305;1003191;-36
2023/03/07 04:18:24;;;;;;;38.40;17.60;;;;;;;-128.00;-1.00;-1.00;101190;1305;1003657;-32
2023/03/07 04:20:51;;;;;;;70.30;27.30;;;;;;;-128.00;-1.00;-1.00;101182;1305;1004154;-32
2023/03/07 04:23:17;;;;;;;74.40;27.70;;;;;;;-128.00;-1.00;-1.00;101102;1305;1003749;-35
2023/03/07 04:25:48;;;;;;;42.10;17.60;;;;;;;-128.00;-1.00;-1.00;101109;1305;1002219;-34
2023/03/07 04:28:17;;;;;;;53.00;23.60;;;;;;;-128.00;-1.00;-1.00;101216;1305;1003833;-35
2023/03/07 04:30:43;;;;;;;44.00;18.10;;;;;;;-128.00;-1.00;-1.00;101144;1305;1003674;-34
2023/03/07 04:33:09;;;;;;;63.10;24.30;;;;;;;-128.00;-1.00;-1.00;101145;1305;1003148;-36
2023/03/07 04:35:35;;;;;;;40.30;18.30;;;;;;;-128.00;-1.00;-1.00;101096;1305;1002751;-45
2023/03/07 05:16:29;;;;;;;71.70;27.30;;;;;;;-102.77;19.20;19593.31;101684;1304;1543776;-31
2023/03/07 05:18:55;;;;;;;67.50;25.40;;;;;;;-128.00;-1.00;-1.00;100808;1304;1003126;-34
2023/03/07 05:21:21;;;;;;;75.50;26.50;;;;;;;-128.00;-1.00;-1.00;101125;1304;1003597;-34
2023/03/07 05:23:46;;;;;;;65.10;23.40;;;;;;;-128.00;-1.00;-1.00;101130;1298;1003181;-34
2023/03/07 05:26:12;;;;;;;43.30;20.80;;;;;;;-128.00;-1.00;-1.00;101287;1304;1004033;-35
2023/03/07 05:28:38;;;;;;;62.00;28.60;;;;;;;-128.00;-1.00;-1.00;101165;1304;1002834;-35
2023/03/07 05:31:04;;;;;;;60.40;25.00;;;;;;;-128.00;-1.00;-1.00;101113;1304;1003904;-31
2023/03/07 05:33:30;;;;;;;58.30;25.20;;;;;;;-128.00;-1.00;-1.00;101033;1304;1003080;-36
2023/03/07 05:36:00;;;;;;;46.00;20.30;;;;;;;-128.00;-1.00;-1.00;101192;1304;1002906;-32
2023/03/07 05:38:26;;;;;;;43.10;18.00;;;;;;;-128.00;-1.00;-1.00;101138;1304;1003761;-35
2023/03/07 05:40:52;;;;;;;41.70;15.20;;;;;;;-128.00;-1.00;-1.00;101152;1304;1003702;-29
2023/03/07 05:43:18;;;;;;;41.80;17.90;;;;;;;-128.00;-1.00;-1.00;101103;1304;1002590;-34
2023/03/07 05:45:44;;;;;;;42.60;18.90;;;;;;;-128.00;-1.00;-1.00;101216;1304;1003363;-35
2023/03/07 05:48:09;;;;;;;33.40;15.60;;;;;;;-128.00;-1.00;-1.00;101169;1304;1003080;-35
2023/03/07 05:50:37;;;;;;;49.30;18.40;;;;;;;-128.00;-1.00;-1.00;101147;1304;1003091;-31
2023/03/07 05:53:03;;;;;;;54.80;21.90;;;;;;;-128.00;-1.00;-1.00;101107;1304;1003760;-34
2023/03/07 05:55:29;;;;;;;44.80;18.20;;;;;;;-128.00;-1.00;-1.00;101245;1304;1003302;-37
2023/03/07 05:57:55;;;;;;;47.70;19.10;;;;;;;-128.00;-1.00;-1.00;101156;1304;1003117;-30
2023/03/07 06:00:21;;;;;;;53.70;21.80;;;;;;;-128.00;-1.00;-1.00;101195;1304;1002891;-34
2023/03/07 06:02:47;;;;;;;50.50;21.00;;;;;;;-128.00;-1.00;-1.00;101182;1304;1004874;-31
2023/03/07 06:05:13;;;;;;;37.80;16.90;;;;;;;-128.00;-1.00;-1.00;101130;1304;1004077;-35
2023/03/07 06:07:38;;;;;;;55.00;19.00;;;;;;;-128.00;-1.00;-1.00;101086;1304;1003378;-35
2023/03/07 06:10:06;;;;;;;42.60;19.10;;;;;;;-128.00;-1.00;-1.00;101180;1304;1003363;-35
2023/03/07 06:12:32;;;;;;;47.10;17.80;;;;;;;-128.00;-1.00;-1.00;101120;1304;1002429;-34
2023/03/07 06:14:58;;;;;;;37.20;15.70;;;;;;;-128.00;-1.00;-1.00;101044;1304;1005087;-35
2023/03/07 06:17:24;;;;;;;50.60;20.20;;;;;;;-128.00;-1.00;-1.00;101194;1304;1003445;-32
2023/03/07 06:19:50;;;;;;;48.40;18.30;;;;;;;-128.00;-1.00;-1.00;101149;1305;1003261;-35
2023/03/07 06:22:16;;;;;;;49.20;17.50;;;;;;;-128.00;-1.00;-1.00;101025;1305;1002597;-31
2023/03/07 06:24:41;;;;;;;47.90;20.70;;;;;;;-128.00;-1.00;-1.00;101112;1304;1004125;-35
2023/03/07 06:27:07;;;;;;;40.00;17.50;;;;;;;-128.00;-1.00;-1.00;100910;1305;1003080;-36
2023/03/07 06:29:33;;;;;;;50.60;20.00;;;;;;;-128.00;-1.00;-1.00;101100;1305;1003156;-36
2023/03/07 06:31:58;;;;;;;34.30;15.00;;;;;;;-128.00;-1.00;-1.00;101044;1304;1003610;-32
2023/03/07 06:34:25;;;;;;;46.00;17.10;;;;;;;-128.00;-1.00;-1.00;101087;1305;1004667;-35
2023/03/07 06:36:51;;;;;;;49.00;20.50;;;;;;;-128.00;-1.00;-1.00;101090;1304;1003757;-30
2023/03/07 06:39:19;;;;;;;43.80;19.00;;;;;;;-128.00;-1.00;-1.00;101255;1304;1005516;-36
2023/03/07 06:41:48;;;;;;;38.60;16.70;;;;;;;-128.00;-1.00;-1.00;101269;1302;1002777;-35
2023/03/07 06:44:15;;;;;;;52.00;21.10;;;;;;;-128.00;-1.00;-1.00;101120;1304;1002597;-36
2023/03/07 06:46:42;;;;;;;43.20;17.70;;;;;;;-128.00;-1.00;-1.00;101113;1305;1003491;-35
2023/03/07 06:49:08;;;;;;;35.40;15.80;;;;;;;-128.00;-1.00;-1.00;101140;1304;1003209;-35
2023/03/07 06:51:34;;;;;;;49.00;19.90;;;;;;;-128.00;-1.00;-1.00;101059;1305;1002583;-31
2023/03/07 06:53:59;;;;;;;45.60;20.10;;;;;;;-128.00;-1.00;-1.00;101150;1305;1002610;-30
2023/03/07 06:56:28;;;;;;;33.90;16.40;;;;;;;-128.00;-1.00;-1.00;101053;1304;1003571;-31
2023/03/07 06:58:54;;;;;;;48.50;19.60;;;;;;;-128.00;-1.00;-1.00;101251;1305;1002709;-33
2023/03/07 07:01:21;;;;;;;42.70;18.10;;;;;;;-128.00;-1.00;-1.00;101117;1304;1003538;-33
2023/03/07 07:03:47;;;;;;;40.20;18.80;;;;;;;-128.00;-1.00;-1.00;101053;1301;1004346;-36
2023/03/07 07:06:13;;;;;;;37.80;17.10;;;;;;;-128.00;-1.00;-1.00;101284;1305;1004772;-35
2023/03/07 07:08:39;;;;;;;36.10;17.30;;;;;;;-128.00;-1.00;-1.00;101202;1304;1003695;-35
2023/03/07 07:11:05;;;;;;;27.40;14.20;;;;;;;-128.00;-1.00;-1.00;101093;1305;1003122;-35
2023/03/07 07:13:31;;;;;;;34.90;17.30;;;;;;;-128.00;-1.00;-1.00;101231;1304;1003813;-34
2023/03/07 07:16:02;;;;;;;29.40;15.70;;;;;;;-128.00;-1.00;-1.00;101083;1305;1003238;-35
2023/03/07 07:18:28;;;;;;;30.40;15.20;;;;;;;-128.00;-1.00;-1.00;101238;1304;1003254;-34
2023/03/07 07:20:54;;;;;;;28.50;14.20;;;;;;;-128.00;-1.00;-1.00;100972;1304;1003203;-31
2023/03/07 07:23:20;;;;;;;27.50;14.20;;;;;;;-128.00;-1.00;-1.00;101073;1305;1003150;-31
2023/03/07 07:25:46;;;;;;;35.60;15.10;;;;;;;-128.00;-1.00;-1.00;101048;1305;1003700;-31
2023/03/07 07:28:11;;;;;;;41.80;15.80;;;;;;;-128.00;-1.00;-1.00;101091;1304;1003101;-34
2023/03/07 07:30:37;;;;;;;32.70;14.80;;;;;;;-128.00;-1.00;-1.00;101133;1304;1003299;-36
2023/03/07 07:33:03;;;;;;;26.00;13.40;;;;;;;-128.00;-1.00;-1.00;101189;1304;1002534;-34
2023/03/07 07:35:29;;;;;;;28.20;14.80;;;;;;;-128.00;-1.00;-1.00;101080;1304;1003097;-33
2023/03/07 07:37:54;;;;;;;30.00;16.00;;;;;;;-128.00;-1.00;-1.00;101214;1304;1004526;-30
2023/03/07 07:40:20;;;;;;;26.90;14.60;;;;;;;-128.00;-1.00;-1.00;101116;1305;1003763;-30
2023/03/07 07:42:53;;;;;;;29.80;14.30;;;;;;;-128.00;-1.00;-1.00;101130;1305;1002998;-32
2023/03/07 07:45:20;;;;;;;23.60;13.60;;;;;;;-128.00;-1.00;-1.00;101115;1302;1004907;-34
2023/03/07 07:47:48;;;;;;;28.80;16.10;;;;;;;-128.00;-1.00;-1.00;101304;1304;1003176;-39
2023/03/07 07:50:17;;;;;;;22.40;11.40;;;;;;;-128.00;-1.00;-1.00;101101;1304;1003442;-34
2023/03/07 07:52:43;;;;;;;23.90;14.40;;;;;;;-128.00;-1.00;-1.00;101073;1305;1003880;-30
2023/03/07 07:55:09;;;;;;;27.90;15.50;;;;;;;-128.00;-1.00;-1.00;101101;1305;1002835;-31
2023/03/07 07:57:35;;;;;;;25.20;15.20;;;;;;;-128.00;-1.00;-1.00;101165;1304;1003861;-35
2023/03/07 08:00:03;;;;;;;35.40;14.30;;;;;;;-128.00;-1.00;-1.00;101201;1305;1003739;-32
2023/03/07 08:02:29;;;;;;;26.50;14.20;;;;;;;-128.00;-1.00;-1.00;101269;1305;1004064;-35
2023/03/07 08:04:55;;;;;;;21.40;12.70;;;;;;;-128.00;-1.00;-1.00;101101;1305;1002925;-35
2023/03/07 08:07:22;;;;;;;22.20;13.50;;;;;;;-128.00;-1.00;-1.00;101106;1304;1003407;-31
2023/03/07 08:09:47;;;;;;;21.80;12.70;;;;;;;-128.00;-1.00;-1.00;101071;1304;1002930;-35
2023/03/07 08:12:13;;;;;;;20.00;12.80;;;;;;;-128.00;-1.00;-1.00;101218;1305;1002866;-34
2023/03/07 08:14:39;;;;;;;24.80;12.90;;;;;;;-128.00;-1.00;-1.00;101059;1305;1003134;-32
2023/03/07 08:17:05;;;;;;;20.30;11.40;;;;;;;-128.00;-1.00;-1.00;101128;1305;1002923;-31
2023/03/07 08:19:31;;;;;;;20.60;11.80;;;;;;;-128.00;-1.00;-1.00;101121;1305;1004855;-35
2023/03/07 08:21:58;;;;;;;17.40;10.30;;;;;;;-128.00;-1.00;-1.00;101146;1305;1002946;-32
2023/03/07 08:24:24;;;;;;;18.10;10.50;;;;;;;-128.00;-1.00;-1.00;101119;1305;1002804;-31
2023/03/07 08:26:50;;;;;;;20.30;11.80;;;;;;;-128.00;-1.00;-1.00;101026;1304;1003694;-32
2023/03/07 08:29:15;;;;;;;21.50;10.70;;;;;;;-128.00;-1.00;-1.00;101089;1304;1003113;-31
2023/03/07 08:31:44;;;;;;;18.00;10.00;;;;;;;-128.00;-1.00;-1.00;101145;1304;1003775;-30
2023/03/07 08:34:11;;;;;;;18.70;9.70;;;;;;;-128.00;-1.00;-1.00;101167;1305;1002793;-32
2023/03/07 08:36:38;;;;;;;14.60;9.30;;;;;;;-128.00;-1.00;-1.00;101197;1305;1003594;-30
2023/03/07 08:39:04;;;;;;;19.00;9.90;;;;;;;-128.00;-1.00;-1.00;101243;1305;1002783;-31
2023/03/07 08:41:30;;;;;;;17.80;9.40;;;;;;;-128.00;-1.00;-1.00;101221;1305;1003334;-34
2023/03/07 08:43:56;;;;;;;20.90;10.60;;;;;;;-128.00;-1.00;-1.00;101147;1305;1004782;-31
2023/03/07 08:46:22;;;;;;;13.50;9.40;;;;;;;-128.00;-1.00;-1.00;101276;1305;1003501;-35
2023/03/07 08:48:48;;;;;;;15.70;9.90;;;;;;;-128.00;-1.00;-1.00;101102;1305;1003238;-37
2023/03/07 08:51:15;;;;;;;20.10;9.90;;;;;;;-128.00;-1.00;-1.00;101180;1305;1004330;-33
2023/03/07 08:53:42;;;;;;;20.70;9.60;;;;;;;-128.00;-1.00;-1.00;101139;1305;1003366;-30
2023/03/07 08:56:08;;;;;;;17.70;11.00;;;;;;;-128.00;-1.00;-1.00;101071;1305;1003009;-34
2023/03/07 08:58:34;;;;;;;26.10;10.50;;;;;;;-128.00;-1.00;-1.00;101115;1305;1002878;-34
2023/03/07 09:01:00;;;;;;;16.00;9.20;;;;;;;-128.00;-1.00;-1.00;101159;1304;1002876;-33
2023/03/07 09:03:26;;;;;;;12.40;9.30;;;;;;;-128.00;-1.00;-1.00;101174;1304;1004215;-31
2023/03/07 09:05:51;;;;;;;13.30;9.60;;;;;;;-128.00;-1.00;-1.00;101152;1305;1002974;-31
2023/03/07 09:08:17;;;;;;;16.70;10.30;;;;;;;-128.00;-1.00;-1.00;101165;1304;1005021;-30
2023/03/07 09:10:43;;;;;;;23.20;12.50;;;;;;;-128.00;-1.00;-1.00;101038;1304;1003261;-30
2023/03/07 09:13:09;;;;;;;14.40;8.50;;;;;;;-128.00;-1.00;-1.00;101122;1304;1002992;-30
2023/03/07 09:15:38;;;;;;;15.40;9.80;;;;;;;-128.00;-1.00;-1.00;100809;1304;1004612;-34
2023/03/07 09:18:04;;;;;;;17.00;11.00;;;;;;;-128.00;-1.00;-1.00;101142;1304;1003925;-30
2023/03/07 09:20:30;;;;;;;15.50;10.60;;;;;;;-128.00;-1.00;-1.00;101138;1304;1003836;-34
2023/03/07 09:22:56;;;;;;;14.30;9.80;;;;;;;-128.00;-1.00;-1.00;101118;1304;1002757;-34
2023/03/07 09:25:22;;;;;;;8.40;5.80;;;;;;;-128.00;-1.00;-1.00;101068;1304;1003406;-34
2023/03/07 09:27:47;;;;;;;16.40;9.60;;;;;;;-128.00;-1.00;-1.00;101164;1297;1003725;-31
2023/03/07 09:30:14;;;;;;;15.40;9.70;;;;;;;-128.00;-1.00;-1.00;101233;1305;1003145;-30
2023/03/07 09:32:39;;;;;;;14.20;9.50;;;;;;;-128.00;-1.00;-1.00;101134;1304;1003741;-33
2023/03/07 09:35:06;;;;;;;16.90;9.80;;;;;;;-128.00;-1.00;-1.00;101227;1304;1003545;-34
2023/03/07 09:37:32;;;;;;;18.00;9.10;;;;;;;-128.00;-1.00;-1.00;101096;1304;1002795;-34
2023/03/07 09:39:58;;;;;;;13.30;8.90;;;;;;;-128.00;-1.00;-1.00;101061;1301;1002897;-34
2023/03/07 09:42:40;;;;;;;15.40;9.70;;;;;;;-128.00;-1.00;-1.00;101146;1304;1002812;-34
2023/03/07 09:45:30;;;;;;;13.30;8.30;;;;;;;-128.00;-1.00;-1.00;101151;1304;1003139;-34
2023/03/07 09:48:16;;;;;;;13.20;8.30;;;;;;;-128.00;-1.00;-1.00;101035;1305;1004630;-35
2023/03/07 09:50:52;;;;;;;15.30;9.40;;;;;;;-128.00;-1.00;-1.00;101092;1304;1005437;-31
2023/03/07 09:53:22;;;;;;;13.60;8.80;;;;;;;-128.00;-1.00;-1.00;100997;1304;1003546;-34
2023/03/07 09:55:50;;;;;;;12.10;8.30;;;;;;;-128.00;-1.00;-1.00;101187;1302;1003179;-30
2023/03/07 09:58:19;;;;;;;13.10;7.30;;;;;;;-128.00;-1.00;-1.00;101124;1304;1002277;-30
2023/03/07 10:00:45;;;;;;;14.20;8.30;;;;;;;-128.00;-1.00;-1.00;101163;1304;1002997;-34
2023/03/07 10:03:43;;;;;;;10.80;7.80;;;;;;;-128.00;-1.00;-1.00;101332;1305;1002524;-31
2023/03/07 10:06:15;;;;;;;10.30;6.30;;;;;;;-128.00;-1.00;-1.00;101211;1304;1002927;-34
2023/03/07 10:08:41;;;;;;;12.30;8.20;;;;;;;-128.00;-1.00;-1.00;101131;1297;1002875;-35
2023/03/07 10:11:22;;;;;;;15.90;8.90;;;;;;;-128.00;-1.00;-1.00;101177;1304;1003031;-34
2023/03/07 10:14:04;;;;;;;15.50;9.40;;;;;;;-128.00;-1.00;-1.00;101141;1304;1003187;-30
2023/03/07 10:16:45;;;;;;;12.80;7.80;;;;;;;-128.00;-1.00;-1.00;101105;1304;1004022;-31
2023/03/07 10:19:42;;;;;;;11.60;7.30;;;;;;;-128.00;-1.00;-1.00;101104;1301;1003407;-31
2023/03/07 10:22:29;;;;;;;18.80;9.10;;;;;;;-128.00;-1.00;-1.00;101116;1304;1003960;-35
2023/03/07 10:25:07;;;;;;;12.60;7.70;;;;;;;-128.00;-1.00;-1.00;101101;1304;1004669;-35
2023/03/07 10:27:33;;;;;;;12.20;8.10;;;;;;;-128.00;-1.00;-1.00;101116;1304;1004506;-35
2023/03/07 10:30:00;;;;;;;11.20;6.30;;;;;;;-128.00;-1.00;-1.00;101117;1304;1002888;-32
2023/03/07 10:32:39;;;;;;;15.30;7.80;;;;;;;-128.00;-1.00;-1.00;101098;1304;1003952;-32
2023/03/07 10:35:19;;;;;;;9.50;5.90;;;;;;;-128.00;-1.00;-1.00;101205;1304;1004367;-34
2023/03/07 10:38:02;;;;;;;13.90;7.80;;;;;;;-128.00;-1.00;-1.00;101102;1304;1003429;-30
2023/03/07 10:40:53;;;;;;;8.70;7.70;;;;;;;-128.00;-1.00;-1.00;101141;1304;1003501;-32
2023/03/07 10:43:24;;;;;;;13.90;6.80;;;;;;;-128.00;-1.00;-1.00;101094;1304;1003563;-32
2023/03/07 10:45:54;;;;;;;15.40;8.10;;;;;;;-128.00;-1.00;-1.00;101229;1305;1003621;-31
2023/03/07 10:48:20;;;;;;;12.20;7.70;;;;;;;-128.00;-1.00;-1.00;101204;1304;1003812;-36
2023/03/07 10:50:51;;;;;;;10.30;6.30;;;;;;;-128.00;-1.00;-1.00;101152;1304;1003323;-31
2023/03/07 10:53:30;;;;;;;11.40;6.10;;;;;;;-128.00;-1.00;-1.00;101139;1304;1004212;-35
2023/03/07 10:56:09;;;;;;;10.40;7.30;;;;;;;-128.00;-1.00;-1.00;101076;1304;1003796;-35
2023/03/07 10:58:35;;;;;;;11.10;6.80;;;;;;;-128.00;-1.00;-1.00;101069;1304;1003442;-35
2023/03/07 11:01:15;;;;;;;13.40;7.00;;;;;;;-128.00;-1.00;-1.00;101216;1304;1002697;-32
2023/03/07 11:03:57;;;;;;;7.30;4.40;;;;;;;-128.00;-1.00;-1.00;101129;1304;1003257;-31
2023/03/07 11:45:51;;;;;;;9.60;7.10;;;;;;;6.33;58.62;97607.20;104587;1295;558018;-33
2023/03/07 11:48:30;;;;;;;18.10;8.00;;;;;;;6.21;57.74;97601.55;104366;1289;492628;-31
2023/03/07 11:50:56;;;;;;;8.40;6.00;;;;;;;6.43;56.27;97600.30;104934;1285;23301;-31
2023/03/07 11:53:48;;;;;;;10.20;5.30;;;;;;;6.03;58.18;97607.02;104856;1302;23093;-31
2023/03/07 11:56:25;;;;;;;14.10;6.50;;;;;;;6.16;58.29;97601.02;104687;1295;22825;-35
2023/03/07 11:59:05;;;;;;;12.70;7.50;;;;;;;6.17;58.73;97606.02;104866;1289;25630;-30
2023/03/07 12:01:54;;;;;;;13.30;5.90;;;;;;;6.04;59.53;97601.65;104770;1295;22795;-35
2023/03/07 12:04:43;;;;;;;19.10;5.00;;;;;;;5.99;60.41;97606.02;104822;1295;22829;-35
2023/03/07 12:07:33;;;;;;;10.50;6.20;;;;;;;6.18;59.51;97600.03;104862;1295;23036;-35
2023/03/07 12:10:31;;;;;;;8.50;6.10;;;;;;;5.94;59.24;97595.47;104809;1302;23183;-35
2023/03/07 12:13:05;;;;;;;9.90;5.30;;;;;;;5.88;61.07;97602.60;104760;1302;22791;-31
2023/03/07 12:15:39;;;;;;;11.80;6.40;;;;;;;6.27;59.38;97583.54;104859;1292;25373;-32
2023/03/07 12:18:21;;;;;;;13.20;6.10;;;;;;;-128.00;-1.00;-1.00;101251;1298;1005292;-31
2023/03/07 12:21:08;;;;;;;8.30;6.40;;;;;;;-128.00;-1.00;-1.00;101204;1302;1003888;-31
2023/03/07 12:23:41;;;;;;;7.40;4.80;;;;;;;-128.00;-1.00;-1.00;101025;1302;1004955;-31
2023/03/07 12:26:30;;;;;;;8.70;5.10;;;;;;;-128.00;-1.00;-1.00;101215;1302;1005317;-35
2023/03/07 12:29:08;;;;;;;9.20;5.40;;;;;;;-128.00;-1.00;-1.00;101216;1302;1004523;-36